Time;durP1;ratioP1;P1;durP2;ratioP2;P2;SDS_P1;SDS_P2;PMS_P1;PMS_P2;Temp;Humidity;BMP_temperature;BMP_pressure;BME280_temperature;BME280_humidity;BME280_pressure;Samples;Min_cycle;Max_cycle;Signal;HPM_P1;HPM_P2
2023/10/04 00:00:50;;;;;;;11.50;5.63;;;;;;;14.19;61.88;99356.28;5044978;28;20443;-64
2023/10/04 00:03:15;;;;;;;11.55;5.47;;;;;;;14.13;62.24;99352.38;5032650;28;20030;-62
2023/10/04 00:05:42;;;;;;;14.73;5.93;;;;;;;14.15;62.10;99355.75;5034080;28;20353;-61
2023/10/04 00:08:07;;;;;;;12.52;6.25;;;;;;;14.11;62.51;99357.09;5015318;28;20044;-61
2023/10/04 00:10:33;;;;;;;12.35;6.15;;;;;;;14.06;62.60;99336.00;5032619;28;20034;-61
2023/10/04 00:12:59;;;;;;;13.77;5.50;;;;;;;14.03;62.94;99332.81;5032099;28;20025;-61
2023/10/04 00:15:25;;;;;;;12.43;5.60;;;;;;;13.98;62.99;99330.59;5032932;28;20050;-61
2023/10/04 00:17:52;;;;;;;12.75;5.63;;;;;;;13.93;63.15;99317.59;5031532;28;20037;-63
2023/10/04 00:20:19;;;;;;;11.95;6.22;;;;;;;13.81;63.36;99313.50;5033769;28;20033;-61
2023/10/04 00:22:46;;;;;;;13.60;5.78;;;;;;;13.91;63.54;99321.47;5032974;28;20088;-62
2023/10/04 00:25:21;;;;;;;15.27;6.03;;;;;;;14.02;63.29;99331.97;5032634;28;20045;-62
2023/10/04 00:27:49;;;;;;;11.13;6.03;;;;;;;13.97;63.58;99322.66;5031667;28;20337;-62
2023/10/04 00:30:17;;;;;;;12.45;5.80;;;;;;;14.00;63.33;99325.88;5032662;28;20132;-60
2023/10/04 00:32:46;;;;;;;13.68;5.57;;;;;;;14.00;63.55;99322.38;5031143;28;20363;-61
2023/10/04 00:35:17;;;;;;;13.45;6.00;;;;;;;14.00;63.53;99320.50;5032374;28;20433;-62
2023/10/04 00:37:44;;;;;;;12.95;5.65;;;;;;;13.98;63.69;99316.28;5034481;28;20045;-61
2023/10/04 00:40:18;;;;;;;10.88;5.60;;;;;;;13.95;63.51;99308.53;5036220;28;20342;-61
2023/10/04 00:42:47;;;;;;;11.68;5.72;;;;;;;14.02;63.34;99309.59;5019183;28;20037;-63
2023/10/04 00:45:13;;;;;;;10.90;5.35;;;;;;;13.99;63.44;99312.59;5036295;28;20087;-61
2023/10/04 00:47:47;;;;;;;12.20;5.93;;;;;;;14.07;63.24;99315.34;5051303;28;20033;-62
2023/10/04 00:50:22;;;;;;;11.20;5.68;;;;;;;14.01;63.52;99302.53;5055147;28;20136;-62
2023/10/04 00:52:54;;;;;;;14.45;6.07;;;;;;;13.98;63.37;99303.69;5055385;28;20044;-61
2023/10/04 00:55:21;;;;;;;12.45;6.18;;;;;;;13.95;63.74;99300.44;5055803;28;20044;-61
2023/10/04 00:57:49;;;;;;;12.40;5.97;;;;;;;13.77;63.85;99274.47;5055544;28;20032;-61
2023/10/04 01:00:17;;;;;;;10.70;6.30;;;;;;;13.89;63.89;99291.19;5054822;28;20443;-61
2023/10/04 01:02:46;;;;;;;11.25;6.00;;;;;;;13.90;63.94;99288.31;5036470;28;20041;-63
2023/10/04 01:05:14;;;;;;;13.00;6.20;;;;;;;13.83;63.91;99279.19;5035891;28;20787;-61
2023/10/04 01:07:40;;;;;;;10.15;6.18;;;;;;;13.80;64.12;99271.44;5034885;28;20030;-61
2023/10/04 01:10:07;;;;;;;12.55;5.97;;;;;;;13.84;64.21;99278.19;5036943;28;20400;-62
2023/10/04 01:12:33;;;;;;;9.50;5.45;;;;;;;13.77;64.10;99277.16;5035297;28;20053;-62
2023/10/04 01:15:26;;;;;;;16.63;6.25;;;;;;;13.74;64.27;99266.69;5034280;28;20053;-62
2023/10/04 01:17:45;;;;;;;13.55;6.25;;;;;;;13.70;64.49;99265.31;5034337;28;20042;-61
2023/10/04 01:20:12;;;;;;;12.00;5.95;;;;;;;13.72;64.58;99282.13;5018499;28;20384;-61
2023/10/04 01:22:38;;;;;;;13.43;6.38;;;;;;;13.70;64.50;99265.31;5035667;28;20112;-61
2023/10/04 01:25:04;;;;;;;12.77;6.20;;;;;;;13.66;64.76;99266.63;5035567;28;20099;-61
2023/10/04 01:27:31;;;;;;;17.63;6.20;;;;;;;13.56;64.86;99250.59;5034800;28;20088;-62
2023/10/04 01:29:56;;;;;;;14.63;6.07;;;;;;;13.57;65.02;99249.59;5035847;28;20029;-62
2023/10/04 01:32:23;;;;;;;12.20;6.18;;;;;;;13.56;64.88;99248.75;5049582;28;20044;-61
2023/10/04 01:34:49;;;;;;;15.55;6.05;;;;;;;13.55;65.28;99247.06;5052505;28;20151;-62
2023/10/04 01:37:14;;;;;;;14.20;5.63;;;;;;;13.52;65.40;99247.41;5055483;28;20124;-61
2023/10/04 01:39:44;;;;;;;10.98;6.13;;;;;;;13.50;65.44;99244.00;5054711;28;20037;-61
2023/10/04 01:42:11;;;;;;;11.20;5.90;;;;;;;13.51;65.58;99245.72;5054573;28;20025;-62
2023/10/04 01:44:37;;;;;;;13.20;5.82;;;;;;;13.44;65.18;99225.81;5053431;28;20025;-61
2023/10/04 01:47:02;;;;;;;12.95;6.03;;;;;;;13.48;65.40;99224.47;5055104;28;20043;-61
2023/10/04 01:49:28;;;;;;;13.45;6.18;;;;;;;13.48;65.49;99221.78;5054410;28;20044;-61
2023/10/04 01:51:53;;;;;;;15.23;6.18;;;;;;;13.46;65.73;99224.66;5054366;28;20024;-60
2023/10/04 01:54:19;;;;;;;13.30;5.38;;;;;;;13.41;65.74;99209.97;5054741;28;20032;-61
2023/10/04 01:56:44;;;;;;;11.93;6.20;;;;;;;13.46;65.53;99218.41;5054821;28;20110;-62
2023/10/04 01:59:13;;;;;;;14.27;6.72;;;;;;;13.39;65.76;99204.75;5013180;28;20028;-60
2023/10/04 02:01:40;;;;;;;11.30;6.18;;;;;;;13.23;65.58;99172.38;5034084;28;20116;-62
2023/10/04 02:04:06;;;;;;;13.25;6.30;;;;;;;13.42;65.61;99215.19;5017334;28;20041;-62
2023/10/04 02:06:33;;;;;;;11.77;5.78;;;;;;;13.41;65.65;99201.91;5017625;28;20030;-61
2023/10/04 02:09:00;;;;;;;10.00;5.63;;;;;;;13.44;65.98;99209.66;5034154;28;20086;-62
2023/10/04 02:11:26;;;;;;;12.02;5.88;;;;;;;13.41;65.57;99202.75;5034308;28;20448;-67
2023/10/04 02:13:52;;;;;;;11.50;6.15;;;;;;;13.41;65.55;99207.28;5035601;28;20368;-62
2023/10/04 02:19:03;;;;;;;10.88;5.70;;;;;;;13.42;65.75;99187.44;5034820;28;20029;-61
2023/10/04 02:21:29;;;;;;;12.65;6.10;;;;;;;13.41;65.58;99186.63;5033610;28;20071;-63
2023/10/04 02:23:55;;;;;;;13.02;6.82;;;;;;;13.46;65.69;99189.69;5044563;28;20025;-62
2023/10/04 02:26:22;;;;;;;14.43;6.45;;;;;;;13.40;65.76;99184.06;5054332;28;20333;-61
2023/10/04 02:28:51;;;;;;;17.02;6.80;;;;;;;13.42;65.73;99182.06;5053313;28;20436;-61
2023/10/04 02:31:20;;;;;;;14.93;6.45;;;;;;;13.47;65.38;99175.25;5053294;28;20208;-61
2023/10/04 02:33:47;;;;;;;14.40;6.65;;;;;;;13.46;65.51;99176.25;5053158;28;20470;-61
2023/10/04 02:36:13;;;;;;;11.95;6.25;;;;;;;13.40;65.65;99168.81;5054195;28;20052;-60
2023/10/04 02:38:38;;;;;;;12.85;6.75;;;;;;;13.48;65.20;99162.63;5051457;28;20393;-60
2023/10/04 02:41:10;;;;;;;12.40;6.38;;;;;;;13.48;65.23;99159.94;5053176;28;20119;-61
2023/10/04 02:43:40;;;;;;;13.60;6.28;;;;;;;13.47;65.32;99169.00;5054225;28;20028;-62
2023/10/04 02:46:05;;;;;;;13.40;6.55;;;;;;;13.48;65.17;99157.25;5054152;28;20055;-60
2023/10/04 02:48:32;;;;;;;11.75;6.45;;;;;;;13.42;65.57;99145.28;5052744;28;20356;-62
2023/10/04 02:50:58;;;;;;;11.20;5.88;;;;;;;13.31;65.50;99138.31;5041725;28;20091;-67
2023/10/04 02:53:27;;;;;;;15.13;6.82;;;;;;;13.33;65.37;99133.63;5034216;28;20034;-60
2023/10/04 02:55:54;;;;;;;10.77;6.30;;;;;;;13.29;65.42;99113.44;5016222;28;20522;-62
2023/10/04 02:58:21;;;;;;;9.63;6.10;;;;;;;13.33;65.63;99139.00;5035091;28;20044;-63
2023/10/04 03:00:49;;;;;;;11.25;5.95;;;;;;;13.37;65.50;99133.31;5033771;28;20038;-61
2023/10/04 03:03:19;;;;;;;14.73;6.40;;;;;;;13.38;65.92;99137.69;5032607;28;20026;-60
2023/10/04 03:05:45;;;;;;;13.48;6.20;;;;;;;13.38;65.58;99121.56;5032830;28;20029;-62
2023/10/04 03:08:16;;;;;;;15.27;6.43;;;;;;;13.34;65.53;99129.09;5016592;28;20048;-62
2023/10/04 03:10:42;;;;;;;13.07;6.38;;;;;;;13.35;65.47;99120.88;5033346;28;20455;-61
2023/10/04 03:13:12;;;;;;;12.88;6.30;;;;;;;13.36;65.65;99113.63;5033537;28;20025;-61
2023/10/04 03:15:38;;;;;;;14.95;6.53;;;;;;;13.14;65.62;99089.00;5052479;28;20505;-62
2023/10/04 03:18:13;;;;;;;14.52;6.68;;;;;;;13.37;65.34;99117.19;5023751;28;20083;-60
2023/10/04 03:21:28;;;;;;;12.57;6.97;;;;;;;13.44;65.32;99107.50;5033167;28;20025;-62
2023/10/04 03:23:34;;;;;;;11.48;6.50;;;;;;;13.33;65.30;99104.06;5032052;28;20332;-63
2023/10/04 03:26:04;;;;;;;12.23;6.10;;;;;;;13.16;65.21;99087.00;5032902;28;20033;-67
2023/10/04 03:28:33;;;;;;;14.10;6.15;;;;;;;13.34;64.94;99116.50;5035478;28;20059;-62
2023/10/04 03:31:04;;;;;;;16.60;6.47;;;;;;;13.40;65.05;99115.03;5033393;28;20029;-61
2023/10/04 03:33:31;;;;;;;12.13;6.55;;;;;;;13.38;65.21;99105.41;5032870;28;20039;-61
2023/10/04 03:35:58;;;;;;;13.93;6.40;;;;;;;13.32;65.31;99102.38;5033721;28;20363;-61
2023/10/04 03:38:25;;;;;;;13.45;6.80;;;;;;;13.30;65.34;99096.31;5034183;28;20029;-61
2023/10/04 03:40:55;;;;;;;11.93;5.85;;;;;;;13.36;65.15;99102.88;5032848;28;20041;-62
2023/10/04 03:43:20;;;;;;;12.95;6.63;;;;;;;13.37;65.18;99088.44;5032327;28;20071;-61
2023/10/04 03:45:46;;;;;;;14.43;6.55;;;;;;;13.25;64.91;99069.03;5015708;28;20057;-61
2023/10/04 03:48:17;;;;;;;11.82;6.80;;;;;;;13.42;64.81;99091.50;5032838;28;20041;-62
2023/10/04 03:50:53;;;;;;;15.80;6.30;;;;;;;13.44;64.85;99077.91;5032624;28;20456;-61
2023/10/04 03:53:21;;;;;;;;;;;;;;;13.78;63.27;99099.41;5033557;28;20364;-62
2023/10/04 03:55:47;;;;;;;14.50;6.57;;;;;;;13.63;63.73;99088.44;5033178;28;20003;-62
2023/10/04 03:58:19;;;;;;;14.30;6.60;;;;;;;13.44;63.90;99062.63;5033787;28;20162;-61
2023/10/04 04:00:45;;;;;;;11.48;6.32;;;;;;;13.39;63.88;99053.34;5032665;28;20037;-61
2023/10/04 04:03:12;;;;;;;14.40;6.43;;;;;;;13.67;63.49;99085.41;5032827;28;20094;-61
2023/10/04 04:05:44;;;;;;;14.23;6.43;;;;;;;13.75;63.33;99096.22;5033037;28;20033;-61
2023/10/04 04:08:12;;;;;;;15.73;7.00;;;;;;;13.74;63.19;99063.06;5033659;28;20025;-62
2023/10/04 04:10:38;;;;;;;15.82;6.35;;;;;;;13.89;62.75;99065.97;5031733;28;20037;-61
2023/10/04 04:13:06;;;;;;;15.15;7.07;;;;;;;13.90;62.54;99066.84;5014855;28;20035;-62
2023/10/04 04:15:35;;;;;;;12.35;6.68;;;;;;;14.05;61.96;99059.78;5031912;28;20057;-60
2023/10/04 04:18:20;;;;;;;15.27;6.80;;;;;;;14.13;61.93;99066.22;5033585;28;20033;-62
2023/10/04 04:20:47;;;;;;;13.50;6.68;;;;;;;14.25;61.43;99069.44;5032330;28;20068;-63
2023/10/04 04:23:13;;;;;;;15.52;6.88;;;;;;;14.35;61.01;99059.31;5015128;28;20045;-62
2023/10/04 04:25:39;;;;;;;12.85;6.57;;;;;;;14.38;60.78;99040.13;5031499;28;20064;-62
2023/10/04 04:28:07;;;;;;;14.77;6.80;;;;;;;14.57;60.64;99062.38;5037484;28;20459;-63
2023/10/04 04:30:35;;;;;;;14.15;6.63;;;;;;;14.50;59.73;99013.72;5051547;28;20040;-62
2023/10/04 04:33:07;;;;;;;11.98;6.80;;;;;;;14.85;59.10;99051.25;5051735;28;20033;-64
2023/10/04 04:38:09;;;;;;;12.40;6.68;;;;;;;14.75;58.38;99013.72;5047847;28;20064;-62
2023/10/04 04:40:35;;;;;;;;;;;;;;;15.52;57.58;99051.91;5033304;28;20033;-62
2023/10/04 04:43:17;;;;;;;13.90;6.88;;;;;;;15.56;56.51;99058.66;5014813;28;19982;-62
2023/10/04 04:45:49;;;;;;;13.98;6.93;;;;;;;15.57;56.25;99042.28;5031453;28;20367;-63
2023/10/04 04:48:15;;;;;;;15.82;6.30;;;;;;;15.84;55.46;99042.81;5032246;28;20460;-63
2023/10/04 04:50:41;;;;;;;15.15;6.55;;;;;;;16.03;54.86;99052.34;5031296;28;20107;-62
2023/10/04 04:53:14;;;;;;;13.85;6.90;;;;;;;16.30;53.80;99041.19;5015134;28;20107;-62
2023/10/04 04:55:40;;;;;;;13.05;7.03;;;;;;;16.59;52.60;99009.88;5034309;28;20025;-61
2023/10/04 04:58:06;;;;;;;13.35;6.88;;;;;;;17.27;51.33;99031.50;5021169;28;20525;-64
2023/10/04 05:00:33;;;;;;;14.75;6.53;;;;;;;18.03;49.32;99030.38;5045242;28;20060;-63
2023/10/04 05:03:00;;;;;;;12.55;6.75;;;;;;;19.07;46.55;99032.72;5051473;28;20041;-62
2023/10/04 05:05:28;;;;;;;12.70;6.90;;;;;;;19.75;44.73;99025.75;5052111;28;20033;-61
2023/10/04 05:07:54;;;;;;;10.80;6.63;;;;;;;19.75;44.29;99014.88;5041207;28;20025;-63
2023/10/04 05:10:22;;;;;;;14.68;6.13;;;;;;;19.47;45.16;99023.97;5052011;28;20047;-61
2023/10/04 05:12:48;;;;;;;18.42;6.60;;;;;;;19.15;45.30;99021.72;5052139;28;20042;-62
2023/10/04 05:15:32;;;;;;;11.77;6.10;;;;;;;19.03;45.70;99018.72;5051565;28;20057;-62
2023/10/04 05:18:04;;;;;;;15.55;6.90;;;;;;;19.27;45.05;98980.44;5051612;28;20065;-62
2023/10/04 05:20:31;;;;;;;12.80;6.43;;;;;;;20.02;43.63;99001.44;5036806;28;20091;-63
2023/10/04 05:22:58;;;;;;;13.45;7.10;;;;;;;20.96;41.19;98992.44;5031910;28;20034;-62
2023/10/04 05:25:24;;;;;;;12.20;6.95;;;;;;;21.99;38.99;98988.06;5034899;28;20097;-62
2023/10/04 05:27:49;;;;;;;15.50;6.90;;;;;;;23.04;36.81;98985.75;5035553;28;20521;-63
2023/10/04 05:30:16;;;;;;;15.80;6.35;;;;;;;23.80;35.49;98984.63;5035635;28;20052;-63
2023/10/04 05:32:43;;;;;;;13.50;6.97;;;;;;;24.16;34.15;98963.75;5044762;28;20028;-62
2023/10/04 05:35:12;;;;;;;16.40;6.97;;;;;;;24.53;33.69;98992.81;5047147;28;20029;-62
2023/10/04 05:37:41;;;;;;;13.30;6.47;;;;;;;25.01;32.96;98977.25;5035208;28;20040;-61
2023/10/04 05:40:17;;;;;;;14.05;6.55;;;;;;;25.36;31.88;98973.63;5035735;28;20035;-63
2023/10/04 05:42:44;;;;;;;15.55;6.55;;;;;;;26.10;30.84;98973.94;5035341;28;20100;-62
2023/10/04 05:45:11;;;;;;;12.43;7.22;;;;;;;26.53;29.93;98968.91;5034979;28;20041;-62
2023/10/04 05:47:38;;;;;;;13.52;7.20;;;;;;;26.64;29.47;98956.19;5035290;28;20356;-62
2023/10/04 05:50:08;;;;;;;10.32;6.85;;;;;;;26.86;29.42;98952.69;5047074;28;20033;-62
2023/10/04 05:52:33;;;;;;;15.45;7.18;;;;;;;27.40;28.57;98951.16;5055407;28;20048;-62
2023/10/04 05:55:00;;;;;;;14.63;7.05;;;;;;;27.37;28.43;98955.28;5054750;28;20040;-62
2023/10/04 05:57:28;;;;;;;15.20;7.20;;;;;;;26.39;29.87;98943.72;5053008;28;20120;-62
2023/10/04 05:59:54;;;;;;;15.23;6.90;;;;;;;25.08;31.25;98928.69;5055113;28;20119;-61
2023/10/04 06:02:19;;;;;;;13.57;7.32;;;;;;;23.92;33.41;98943.66;5054041;28;20116;-63
2023/10/04 06:04:47;;;;;;;14.05;6.63;;;;;;;23.18;34.88;98937.28;5054785;28;20041;-63
2023/10/04 06:07:13;;;;;;;15.35;6.82;;;;;;;22.60;35.78;98930.34;5054398;28;20083;-62
2023/10/04 06:09:42;;;;;;;15.35;7.60;;;;;;;22.55;36.30;98922.84;5055130;28;20036;-61
2023/10/04 06:12:08;;;;;;;12.15;6.97;;;;;;;22.32;36.35;98926.16;5052916;28;20108;-63
2023/10/04 06:14:36;;;;;;;12.82;6.85;;;;;;;21.78;37.23;98918.41;5054453;28;20091;-61
2023/10/04 06:17:04;;;;;;;15.27;7.25;;;;;;;21.23;38.23;98912.38;5054584;28;20448;-59
2023/10/04 06:19:30;;;;;;;17.58;7.28;;;;;;;20.81;39.11;98924.69;5053345;28;20617;-61
2023/10/04 06:21:56;;;;;;;16.58;7.18;;;;;;;20.64;39.70;98915.06;5052844;28;20109;-62
2023/10/04 06:24:22;;;;;;;16.00;7.53;;;;;;;20.48;39.81;98910.06;5054501;28;20068;-63
2023/10/04 06:26:48;;;;;;;17.23;7.47;;;;;;;20.43;40.09;98909.88;5045365;28;20064;-63
2023/10/04 06:29:14;;;;;;;17.88;7.05;;;;;;;20.42;40.21;98887.25;5034553;28;20034;-62
2023/10/04 06:31:41;;;;;;;15.38;7.35;;;;;;;20.48;39.74;98897.28;5033623;28;20030;-63
2023/10/04 06:34:07;;;;;;;15.55;8.00;;;;;;;20.17;40.21;98854.50;5033808;28;20032;-62
2023/10/04 06:36:33;;;;;;;18.67;7.82;;;;;;;20.39;40.26;98862.41;5042006;28;20347;-62
2023/10/04 06:38:59;;;;;;;20.45;7.93;;;;;;;20.57;39.76;98870.72;5054019;28;20543;-62
2023/10/04 06:41:26;;;;;;;16.65;7.97;;;;;;;20.45;39.65;98872.44;5049626;28;20096;-62
2023/10/04 06:43:52;;;;;;;22.63;8.10;;;;;;;20.11;40.34;98861.59;5034153;28;20040;-62
2023/10/04 06:46:18;;;;;;;20.23;7.40;;;;;;;19.80;41.17;98871.19;5034974;28;20029;-62
2023/10/04 06:48:45;;;;;;;15.73;7.80;;;;;;;19.57;41.61;98868.84;5033293;28;20037;-61
2023/10/04 06:51:11;;;;;;;23.52;7.80;;;;;;;19.43;42.00;98873.41;5034274;28;20057;-63
2023/10/04 06:53:41;;;;;;;15.38;7.78;;;;;;;19.32;42.48;98866.69;5033881;28;20048;-61
2023/10/04 06:56:07;;;;;;;18.38;8.07;;;;;;;19.13;42.53;98858.28;5033816;28;20108;-62
2023/10/04 06:58:32;;;;;;;20.83;7.40;;;;;;;18.82;43.01;98820.81;5034218;28;20120;-62
2023/10/04 07:00:58;;;;;;;22.20;7.55;;;;;;;18.82;43.27;98837.91;5033396;28;20048;-62
2023/10/04 07:03:26;;;;;;;19.92;7.25;;;;;;;18.72;43.73;98849.13;5032747;28;20052;-62
2023/10/04 07:05:51;;;;;;;14.10;7.18;;;;;;;18.54;44.25;98852.38;5033889;28;20030;-63
2023/10/04 07:08:17;;;;;;;22.38;7.68;;;;;;;18.51;44.08;98844.66;5034896;28;20098;-63
2023/10/04 07:10:44;;;;;;;19.75;8.52;;;;;;;18.52;44.41;98835.47;5033336;28;20033;-61
2023/10/04 07:13:11;;;;;;;17.92;7.65;;;;;;;18.57;44.08;98857.38;5046482;28;20044;-63
2023/10/04 07:15:39;;;;;;;23.63;8.18;;;;;;;18.62;44.05;98848.66;5053293;28;20052;-62
2023/10/04 07:18:07;;;;;;;18.70;8.02;;;;;;;18.75;43.85;98840.59;5053625;28;20037;-64
2023/10/04 07:20:34;;;;;;;24.17;8.80;;;;;;;18.83;43.73;98825.19;5052913;28;20033;-62
2023/10/04 07:23:03;;;;;;;18.10;8.30;;;;;;;18.96;43.40;98837.97;5053027;28;20025;-61
2023/10/04 07:25:30;;;;;;;20.52;8.18;;;;;;;19.02;43.28;98850.75;5035303;28;20407;-62
2023/10/04 07:28:01;;;;;;;14.52;7.35;;;;;;;19.03;43.16;98839.69;5045645;28;20029;-62
2023/10/04 07:30:27;;;;;;;16.60;7.60;;;;;;;19.02;43.31;98826.34;5046051;28;20040;-64
2023/10/04 07:32:53;;;;;;;20.27;7.95;;;;;;;19.03;43.09;98830.72;5048861;28;20033;-62
2023/10/04 07:35:23;;;;;;;16.10;7.40;;;;;;;19.12;43.14;98826.78;5053151;28;20033;-60
2023/10/04 07:37:49;;;;;;;16.92;7.70;;;;;;;19.35;42.45;98820.16;5052644;28;20078;-61
2023/10/04 07:40:16;;;;;;;16.73;7.15;;;;;;;19.48;42.29;98827.47;5047797;28;20055;-62
2023/10/04 07:42:48;;;;;;;23.10;7.45;;;;;;;19.55;41.83;98813.91;5039220;28;20067;-62
2023/10/04 07:45:16;;;;;;;19.95;8.40;;;;;;;19.54;42.22;98810.38;5033131;28;20037;-62
2023/10/04 07:47:43;;;;;;;20.73;8.05;;;;;;;19.53;41.56;98788.84;5041747;28;20086;-60
2023/10/04 07:50:10;;;;;;;18.30;8.02;;;;;;;19.72;41.61;98806.19;5052127;28;20047;-63
2023/10/04 07:52:37;;;;;;;28.75;8.10;;;;;;;19.99;41.41;98800.78;5046216;28;20052;-62
2023/10/04 07:55:05;;;;;;;16.02;7.95;;;;;;;20.05;40.82;98797.22;5051031;28;20072;-63
2023/10/04 07:57:37;;;;;;;19.52;8.07;;;;;;;20.16;40.83;98799.28;5040100;28;20033;-62
2023/10/04 08:00:11;;;;;;;22.20;8.02;;;;;;;20.13;40.66;98777.97;5013236;28;20045;-62
2023/10/04 08:02:36;;;;;;;17.92;7.90;;;;;;;20.01;40.81;98766.06;5039353;28;20121;-63
2023/10/04 08:05:04;;;;;;;19.10;7.68;;;;;;;20.03;40.93;98772.97;5050694;28;20112;-64
2023/10/04 08:07:29;;;;;;;19.25;8.15;;;;;;;20.13;40.87;98782.56;5050701;28;20032;-62
2023/10/04 08:09:56;;;;;;;20.02;8.30;;;;;;;20.14;40.55;98778.84;5052344;28;20037;-64
2023/10/04 08:12:23;;;;;;;15.77;7.35;;;;;;;20.06;40.66;98798.91;5049908;28;20379;-62
2023/10/04 08:14:49;;;;;;;21.60;7.80;;;;;;;19.78;41.21;98775.50;5051874;28;20110;-62
2023/10/04 08:17:16;;;;;;;21.38;7.55;;;;;;;19.69;41.63;98795.75;5052235;28;20045;-67
2023/10/04 08:19:42;;;;;;;18.98;7.30;;;;;;;19.51;41.92;98781.75;5052657;28;20036;-63
2023/10/04 08:22:09;;;;;;;15.20;7.72;;;;;;;19.46;42.04;98783.41;5039236;28;20027;-62
2023/10/04 08:24:34;;;;;;;17.35;7.93;;;;;;;19.27;42.29;98761.47;5052581;28;20045;-64
2023/10/04 08:27:01;;;;;;;18.65;7.40;;;;;;;19.44;42.17;98770.06;5031196;28;20025;-63
2023/10/04 08:29:26;;;;;;;16.27;7.55;;;;;;;19.53;42.13;98776.09;5015218;28;20033;-62
2023/10/04 08:31:52;;;;;;;25.80;8.18;;;;;;;19.60;41.83;98779.69;5014844;28;20026;-61
2023/10/04 08:34:18;;;;;;;14.70;7.03;;;;;;;19.59;41.73;98767.16;5032195;28;20055;-63
2023/10/04 08:36:44;;;;;;;19.77;8.45;;;;;;;19.70;41.65;98756.69;5032310;28;20033;-62
2023/10/04 08:39:10;;;;;;;18.98;7.38;;;;;;;19.76;41.47;98769.41;5050107;28;20032;-63
2023/10/04 08:41:40;;;;;;;19.17;7.72;;;;;;;19.85;41.37;98749.16;5051108;28;20514;-63
2023/10/04 08:44:08;;;;;;;14.05;7.35;;;;;;;19.96;41.10;98760.44;5032608;28;20087;-62
2023/10/04 08:46:36;;;;;;;24.48;7.78;;;;;;;20.07;40.98;98751.66;5043503;28;20024;-61
2023/10/04 08:49:05;;;;;;;17.77;7.07;;;;;;;20.24;40.80;98754.75;5032108;28;20078;-62
2023/10/04 08:51:45;;;;;;;21.52;7.82;;;;;;;20.35;40.09;98726.06;5032096;28;20353;-63
2023/10/04 08:54:14;;;;;;;14.35;7.55;;;;;;;20.66;39.94;98738.06;5035661;28;20064;-61
2023/10/04 08:56:54;;;;;;;16.10;7.57;;;;;;;20.90;39.80;98743.81;5051687;28;20033;-61
2023/10/04 08:59:22;;;;;;;19.77;7.70;;;;;;;20.89;39.25;98718.53;5047120;28;20047;-63
2023/10/04 09:01:50;;;;;;;17.20;7.70;;;;;;;20.96;39.22;98721.19;5055466;28;20104;-63
2023/10/04 09:04:18;;;;;;;18.73;7.78;;;;;;;20.99;39.12;98718.06;5044489;28;20063;-67
2023/10/04 09:06:52;;;;;;;20.13;7.43;;;;;;;21.04;39.41;98722.81;5052265;28;20033;-61
2023/10/04 09:09:18;;;;;;;17.40;7.80;;;;;;;20.99;39.00;98718.06;5055690;28;20036;-64
2023/10/04 09:11:45;;;;;;;19.63;7.70;;;;;;;21.06;38.98;98707.94;5056380;28;20025;-61
2023/10/04 09:14:14;;;;;;;20.23;7.95;;;;;;;21.13;38.81;98710.63;5039928;28;20033;-63
2023/10/04 09:16:39;;;;;;;18.52;8.25;;;;;;;20.99;39.13;98670.94;5046414;28;20029;-62
2023/10/04 09:19:07;;;;;;;20.25;7.68;;;;;;;21.29;39.00;98722.00;5048249;28;20036;-62
2023/10/04 09:21:38;;;;;;;16.23;8.15;;;;;;;21.32;38.98;98714.25;5051519;28;20036;-62
2023/10/04 09:24:16;;;;;;;20.52;7.57;;;;;;;21.28;38.98;98718.47;5035740;28;20041;-62
2023/10/04 09:26:52;;;;;;;18.50;7.82;;;;;;;21.17;38.77;98657.41;5039334;28;20116;-64
2023/10/04 09:29:35;;;;;;;16.40;7.43;;;;;;;21.41;38.91;98690.28;5033856;28;20033;-62
2023/10/04 09:32:02;;;;;;;25.85;7.88;;;;;;;21.36;38.28;98666.47;5051334;28;20117;-64
2023/10/04 09:34:28;;;;;;;18.25;7.93;;;;;;;21.54;38.06;98683.91;5035542;28;20029;-62
2023/10/04 09:36:55;;;;;;;21.83;7.53;;;;;;;21.59;38.11;98707.75;5037602;28;20028;-62
2023/10/04 09:39:26;;;;;;;16.90;7.50;;;;;;;21.79;37.62;98691.22;5037833;28;20032;-63
2023/10/04 09:41:54;;;;;;;18.33;7.25;;;;;;;21.71;37.74;98672.47;5052129;28;20458;-63
2023/10/04 09:44:25;;;;;;;20.10;7.47;;;;;;;21.85;37.88;98690.31;5036225;28;20376;-63
2023/10/04 09:46:57;;;;;;;20.17;7.45;;;;;;;21.75;37.77;98674.50;5043424;28;20029;-59
2023/10/04 09:49:26;;;;;;;16.38;7.18;;;;;;;21.90;37.53;98684.19;5049423;28;20033;-61
2023/10/04 09:51:55;;;;;;;17.25;7.80;;;;;;;21.77;37.68;98677.00;5046539;28;20432;-63
2023/10/04 09:54:24;;;;;;;21.25;7.65;;;;;;;21.69;38.16;98690.91;5034458;28;20064;-62
2023/10/04 09:56:52;;;;;;;19.83;7.57;;;;;;;21.67;37.71;98671.22;5033696;28;20033;-61
2023/10/04 09:59:20;;;;;;;14.32;7.13;;;;;;;21.52;37.99;98692.28;5044657;28;20111;-62
2023/10/04 10:01:49;;;;;;;23.50;8.15;;;;;;;21.68;38.06;98681.06;5051060;28;20052;-62
2023/10/04 10:04:17;;;;;;;18.33;7.28;;;;;;;21.66;37.96;98681.31;5028466;28;20056;-65
2023/10/04 10:07:06;;;;;;;21.13;7.43;;;;;;;21.83;37.94;98664.38;5040329;28;20029;-61
2023/10/04 10:09:34;;;;;;;19.60;7.90;;;;;;;21.87;37.51;98692.84;5016928;28;20033;-62
2023/10/04 10:12:02;;;;;;;22.35;8.20;;;;;;;21.84;37.67;98676.94;5034313;28;20036;-60
2023/10/04 10:14:30;;;;;;;21.63;7.55;;;;;;;21.96;37.59;98682.47;5048411;28;20099;-61
2023/10/04 10:16:57;;;;;;;20.40;8.25;;;;;;;22.19;37.07;98679.91;5054000;28;20064;-61
2023/10/04 10:19:29;;;;;;;16.88;7.00;;;;;;;22.18;37.13;98683.66;5053403;28;20039;-61
2023/10/04 10:22:15;;;;;;;17.05;7.38;;;;;;;22.26;37.23;98690.69;5039240;28;20132;-59
2023/10/04 10:24:51;;;;;;;15.52;7.00;;;;;;;22.22;37.20;98673.97;5034022;28;20372;-59
2023/10/04 10:27:20;;;;;;;21.45;7.97;;;;;;;22.16;37.10;98690.41;5034608;28;20512;-61
2023/10/04 10:29:47;;;;;;;12.90;7.75;;;;;;;21.88;37.76;98698.03;5032938;28;20037;-62
2023/10/04 10:32:20;;;;;;;16.83;7.70;;;;;;;21.63;38.33;98676.28;5032416;28;20037;-63
2023/10/04 10:34:58;;;;;;;18.23;8.00;;;;;;;21.34;38.91;98662.28;5032939;28;20127;-62
2023/10/04 10:37:27;;;;;;;19.13;7.50;;;;;;;21.14;39.18;98676.06;5043704;28;20499;-62
2023/10/04 10:39:55;;;;;;;19.63;8.30;;;;;;;20.98;39.70;98688.31;5053825;28;20036;-62
2023/10/04 10:42:23;;;;;;;15.57;7.25;;;;;;;20.87;40.07;98695.31;5052384;28;20043;-61
2023/10/04 10:45:10;;;;;;;21.65;7.85;;;;;;;20.56;40.32;98661.56;5044908;28;20348;-61
2023/10/04 10:47:35;;;;;;;17.45;7.80;;;;;;;20.61;40.73;98681.59;5042838;28;20083;-63
2023/10/04 10:50:04;;;;;;;21.73;8.27;;;;;;;20.58;41.03;98687.47;5043797;28;20041;-63
2023/10/04 10:52:38;;;;;;;17.50;8.65;;;;;;;20.53;41.08;98683.75;5053024;28;20076;-63
2023/10/04 10:55:18;;;;;;;20.27;8.75;;;;;;;20.56;41.40;98688.75;5038194;28;20510;-63
2023/10/04 10:57:50;;;;;;;21.75;8.20;;;;;;;20.36;41.54;98678.81;5049932;28;20033;-65
2023/10/04 11:00:19;;;;;;;18.52;8.07;;;;;;;20.25;41.59;98682.19;5038549;28;20072;-67
2023/10/04 11:02:53;;;;;;;23.45;8.05;;;;;;;20.29;42.13;98695.16;5053447;28;20025;-62
2023/10/04 11:05:21;;;;;;;24.37;7.93;;;;;;;20.11;41.97;98697.72;5049138;28;20033;-62
2023/10/04 11:07:49;;;;;;;16.27;8.52;;;;;;;20.10;42.35;98691.47;5048965;28;20045;-67
2023/10/04 11:10:16;;;;;;;18.92;7.97;;;;;;;20.03;42.55;98715.09;5044058;28;20025;-62
2023/10/04 11:12:44;;;;;;;25.15;8.43;;;;;;;19.92;42.85;98682.09;5047853;28;20037;-62
2023/10/04 11:15:10;;;;;;;21.10;9.20;;;;;;;19.91;42.87;98714.94;5045314;28;20052;-62
2023/10/04 11:17:37;;;;;;;18.48;9.05;;;;;;;19.91;43.00;98715.75;5053083;28;20367;-62
2023/10/04 11:20:09;;;;;;;22.20;8.50;;;;;;;19.79;43.30;98736.44;5052674;28;20033;-62
2023/10/04 11:22:37;;;;;;;25.10;8.70;;;;;;;19.72;43.52;98741.00;5044529;28;20201;-61
2023/10/04 11:25:05;;;;;;;21.05;8.00;;;;;;;19.54;44.10;98739.78;5030865;28;20029;-64
2023/10/04 11:27:32;;;;;;;29.48;9.18;;;;;;;19.46;44.79;98745.41;5032797;28;20056;-63
2023/10/04 11:29:59;;;;;;;21.73;8.23;;;;;;;19.34;45.40;98747.91;5030870;28;20041;-66
2023/10/04 11:32:27;;;;;;;24.67;9.45;;;;;;;19.32;45.18;98769.00;5030827;28;20037;-66
2023/10/04 11:34:52;;;;;;;24.83;8.50;;;;;;;19.03;45.74;98733.88;5031280;28;20432;-63
2023/10/04 11:37:18;;;;;;;23.85;8.65;;;;;;;19.16;46.00;98765.63;5031360;28;20083;-63